Time;durP1;ratioP1;P1;durP2;ratioP2;P2;SDS_P1;SDS_P2;PMS_P1;PMS_P2;Temp;Humidity;BMP_temperature;BMP_pressure;BME280_temperature;BME280_humidity;BME280_pressure;Samples;Min_cycle;Max_cycle;Signal;HPM_P1;HPM_P2
2024/02/10 00:00:16;;;;;;;2.50;1.47;;;9.20;99.90;;;;;;5015429;28;20495;-48
2024/02/10 00:02:45;;;;;;;1.80;1.37;;;9.20;99.90;;;;;;5012868;28;20827;-48
2024/02/10 00:05:14;;;;;;;1.93;1.23;;;9.20;99.90;;;;;;5026320;28;20830;-47
2024/02/10 00:07:51;;;;;;;1.33;0.83;;;9.20;99.90;;;;;;5015342;28;20479;-47
2024/02/10 00:10:21;;;;;;;1.50;1.20;;;9.20;99.90;;;;;;5017845;28;20508;-48
2024/02/10 00:12:51;;;;;;;1.83;1.53;;;9.20;99.90;;;;;;5014882;28;20514;-49
2024/02/10 00:15:21;;;;;;;1.60;1.00;;;9.20;99.90;;;;;;5015290;28;20434;-47
2024/02/10 00:17:49;;;;;;;2.67;1.37;;;9.20;99.90;;;;;;5013236;28;20444;-47
2024/02/10 00:20:20;;;;;;;1.63;1.23;;;9.20;99.90;;;;;;5018518;28;20433;-47
2024/02/10 00:22:50;;;;;;;1.40;1.03;;;9.20;99.90;;;;;;5013110;28;20475;-48
2024/02/10 00:25:19;;;;;;;2.37;1.17;;;9.20;99.90;;;;;;5017398;28;20432;-49
2024/02/10 00:27:47;;;;;;;2.47;1.10;;;9.20;99.90;;;;;;5013624;28;20456;-47
2024/02/10 00:30:16;;;;;;;1.60;1.17;;;9.20;99.90;;;;;;5010583;28;20841;-49
2024/02/10 00:32:51;;;;;;;2.97;2.13;;;9.20;99.90;;;;;;5013104;28;20471;-47
2024/02/10 00:35:22;;;;;;;1.70;1.10;;;9.20;99.90;;;;;;5015148;28;20491;-47
2024/02/10 00:37:51;;;;;;;1.90;1.20;;;9.20;99.90;;;;;;5013193;28;20431;-46
2024/02/10 00:40:20;;;;;;;1.67;1.20;;;9.20;99.90;;;;;;5014996;28;20476;-47
2024/02/10 00:42:51;;;;;;;2.00;1.30;;;9.20;99.90;;;;;;5018231;28;20468;-48
2024/02/10 00:45:21;;;;;;;2.83;1.90;;;9.20;99.90;;;;;;5017404;28;20439;-48
2024/02/10 00:47:52;;;;;;;2.37;1.47;;;9.20;99.90;;;;;;5014177;28;20782;-48
2024/02/10 00:50:21;;;;;;;2.03;1.10;;;9.20;99.90;;;;;;5021528;28;20445;-47
2024/02/10 00:52:51;;;;;;;2.07;1.40;;;9.20;99.90;;;;;;5017705;28;20482;-48
2024/02/10 00:55:30;;;;;;;3.10;1.47;;;9.20;99.90;;;;;;5012180;28;20432;-48
2024/02/10 00:58:02;;;;;;;2.10;1.30;;;9.20;99.90;;;;;;5012059;28;20611;-50
2024/02/10 01:00:30;;;;;;;1.50;1.13;;;9.20;99.90;;;;;;5011508;28;20465;-48
2024/02/10 01:03:00;;;;;;;1.80;1.20;;;9.20;99.90;;;;;;5015851;28;20526;-49
2024/02/10 01:05:30;;;;;;;1.93;1.50;;;9.20;99.90;;;;;;5017125;28;20452;-46
2024/02/10 01:07:59;;;;;;;1.63;1.07;;;9.20;99.90;;;;;;5022138;28;20428;-47
2024/02/10 01:10:29;;;;;;;1.77;1.13;;;9.20;99.90;;;;;;5015885;28;20567;-46
2024/02/10 01:13:03;;;;;;;2.50;1.83;;;9.20;99.90;;;;;;5016280;28;20457;-47
2024/02/10 01:15:32;;;;;;;1.80;1.20;;;9.20;99.90;;;;;;5011075;28;20473;-50
2024/02/10 01:18:03;;;;;;;1.70;1.10;;;9.20;99.90;;;;;;5021682;28;20448;-49
2024/02/10 01:20:32;;;;;;;1.63;1.10;;;9.20;99.90;;;;;;5017898;28;20471;-48
2024/02/10 01:23:00;;;;;;;2.33;1.50;;;9.20;99.90;;;;;;5017440;28;22366;-49
2024/02/10 01:25:31;;;;;;;2.53;1.40;;;9.20;99.90;;;;;;5011515;28;20462;-49
2024/02/10 01:28:01;;;;;;;2.10;1.40;;;9.20;99.90;;;;;;5011660;28;20441;-49
2024/02/10 01:30:29;;;;;;;2.63;2.07;;;9.20;99.90;;;;;;5010492;28;20551;-48
2024/02/10 01:32:57;;;;;;;1.60;1.10;;;9.20;99.90;;;;;;5011799;28;20537;-49
2024/02/10 01:35:28;;;;;;;1.83;1.20;;;9.20;99.90;;;;;;5019150;28;20452;-47
2024/02/10 01:37:59;;;;;;;2.47;1.23;;;9.20;99.90;;;;;;5019120;28;20421;-50
2024/02/10 01:40:27;;;;;;;2.17;1.40;;;9.20;99.90;;;;;;5011467;28;21405;-48
2024/02/10 01:42:56;;;;;;;2.20;1.50;;;9.20;99.90;;;;;;5013233;28;20602;-46
2024/02/10 01:45:24;;;;;;;2.07;1.20;;;9.20;99.90;;;;;;5013057;28;20460;-48
2024/02/10 01:47:52;;;;;;;2.40;1.20;;;9.20;99.90;;;;;;5013783;28;20460;-47
2024/02/10 01:50:20;;;;;;;2.63;1.50;;;9.20;99.90;;;;;;5010421;28;20512;-48
2024/02/10 01:52:50;;;;;;;1.80;1.20;;;9.20;99.90;;;;;;5017874;28;20454;-49
2024/02/10 01:55:19;;;;;;;1.73;1.50;;;9.20;99.90;;;;;;5017759;28;20503;-47
2024/02/10 01:57:57;;;;;;;1.70;1.20;;;9.20;99.90;;;;;;5013640;28;20532;-49
2024/02/10 02:00:26;;;;;;;1.60;1.10;;;9.20;99.90;;;;;;5018288;28;20461;-48
2024/02/10 02:02:59;;;;;;;2.37;1.40;;;9.20;99.90;;;;;;5013148;28;20489;-48
2024/02/10 02:05:28;;;;;;;2.27;1.13;;;9.20;99.90;;;;;;5018447;28;20832;-49
2024/02/10 02:07:59;;;;;;;2.47;1.40;;;9.20;99.90;;;;;;5011656;28;20506;-49
2024/02/10 02:10:27;;;;;;;1.67;0.87;;;9.20;99.90;;;;;;5019989;28;20551;-48
2024/02/10 02:12:57;;;;;;;2.80;1.40;;;9.20;99.90;;;;;;5019058;28;20472;-50
2024/02/10 02:15:27;;;;;;;2.40;1.47;;;9.10;99.90;;;;;;5017220;28;20462;-47
2024/02/10 02:17:57;;;;;;;1.93;1.27;;;9.20;99.90;;;;;;5019004;28;20460;-47
2024/02/10 02:20:28;;;;;;;2.07;1.50;;;9.20;99.90;;;;;;5018607;28;20456;-48
2024/02/10 02:23:00;;;;;;;2.50;1.20;;;9.20;99.90;;;;;;5012083;28;20476;-47
2024/02/10 02:25:28;;;;;;;4.10;1.10;;;9.20;99.90;;;;;;5015179;28;20459;-47
2024/02/10 02:27:57;;;;;;;2.00;1.40;;;9.20;99.90;;;;;;5013348;28;20433;-49
2024/02/10 02:30:27;;;;;;;2.03;1.10;;;9.20;99.90;;;;;;5010016;28;20464;-47
2024/02/10 02:32:55;;;;;;;1.90;1.40;;;9.20;99.90;;;;;;5016574;28;21084;-47
2024/02/10 02:35:23;;;;;;;1.60;1.13;;;9.20;99.90;;;;;;5010299;28;20424;-49
2024/02/10 02:37:52;;;;;;;1.90;1.20;;;9.20;99.90;;;;;;5018150;28;20473;-47
2024/02/10 02:40:25;;;;;;;1.80;1.37;;;9.20;99.90;;;;;;5015233;28;20478;-47
2024/02/10 02:42:55;;;;;;;2.17;1.30;;;9.20;99.90;;;;;;5012931;28;20487;-48
2024/02/10 02:45:23;;;;;;;1.60;1.20;;;9.20;99.90;;;;;;5010127;28;20545;-47
2024/02/10 02:47:51;;;;;;;3.10;1.30;;;9.20;99.90;;;;;;5012666;28;20531;-47
2024/02/10 02:50:24;;;;;;;2.30;1.33;;;9.20;99.90;;;;;;5015683;28;20945;-47
2024/02/10 02:52:53;;;;;;;1.50;1.00;;;9.20;99.90;;;;;;5020497;28;20480;-46
2024/02/10 02:55:23;;;;;;;1.80;1.30;;;9.20;99.90;;;;;;5012525;28;20444;-46
2024/02/10 02:57:52;;;;;;;2.17;1.20;;;9.20;99.90;;;;;;5014930;28;20469;-46
2024/02/10 03:00:20;;;;;;;2.57;1.10;;;9.20;99.90;;;;;;5015741;28;20436;-46
2024/02/10 03:02:51;;;;;;;1.97;1.30;;;9.20;99.90;;;;;;5015968;28;20481;-47
2024/02/10 03:05:19;;;;;;;1.63;0.97;;;9.20;99.90;;;;;;5019575;28;20460;-46
2024/02/10 03:07:47;;;;;;;2.13;1.17;;;9.20;99.90;;;;;;5014916;28;20815;-47
2024/02/10 03:10:16;;;;;;;1.80;1.37;;;9.20;99.90;;;;;;5017780;28;20923;-47
2024/02/10 03:12:48;;;;;;;1.70;1.20;;;9.20;99.90;;;;;;5017816;28;20461;-46
2024/02/10 03:15:17;;;;;;;1.60;1.17;;;9.20;99.90;;;;;;5023403;28;20458;-48
2024/02/10 03:17:46;;;;;;;1.97;1.40;;;9.20;99.90;;;;;;5015925;28;20449;-47
2024/02/10 03:20:21;;;;;;;2.50;1.60;;;9.10;99.90;;;;;;5024376;28;20885;-45
2024/02/10 03:22:58;;;;;;;1.73;1.30;;;9.10;99.90;;;;;;5016314;28;21054;-48
2024/02/10 03:25:28;;;;;;;1.60;1.20;;;9.10;99.90;;;;;;5013135;28;20507;-46
2024/02/10 03:27:57;;;;;;;2.30;2.10;;;9.20;99.90;;;;;;5014065;28;20452;-46
2024/02/10 03:30:27;;;;;;;2.80;1.10;;;9.20;99.90;;;;;;5017601;28;20447;-47
2024/02/10 03:32:55;;;;;;;1.97;1.23;;;9.20;99.90;;;;;;5020148;28;20526;-48
2024/02/10 03:35:27;;;;;;;2.87;1.60;;;9.20;99.90;;;;;;5017143;28;21016;-47
2024/02/10 03:37:55;;;;;;;2.00;1.60;;;9.20;99.90;;;;;;5022700;28;20971;-46
2024/02/10 03:40:25;;;;;;;2.07;1.40;;;9.10;99.90;;;;;;5021128;28;20443;-46
2024/02/10 03:42:56;;;;;;;1.50;1.13;;;9.20;99.90;;;;;;5019416;28;20456;-46
2024/02/10 03:45:30;;;;;;;3.90;1.20;;;9.20;99.90;;;;;;5016562;28;20430;-47
2024/02/10 03:48:03;;;;;;;1.70;1.20;;;9.10;99.90;;;;;;5019087;28;20510;-47
2024/02/10 03:50:32;;;;;;;1.93;1.40;;;9.10;99.90;;;;;;5022076;28;20989;-46
2024/02/10 03:53:01;;;;;;;1.60;1.13;;;9.10;99.90;;;;;;5024396;28;21049;-50
2024/02/10 03:55:29;;;;;;;1.77;1.40;;;9.10;99.90;;;;;;5017563;28;20461;-48
2024/02/10 03:57:59;;;;;;;2.13;1.40;;;9.10;99.90;;;;;;5025543;28;20450;-46
2024/02/10 04:00:28;;;;;;;1.83;0.93;;;9.10;99.90;;;;;;5021060;28;20490;-48
2024/02/10 04:02:57;;;;;;;1.80;1.20;;;9.10;99.90;;;;;;5026229;28;20848;-48
2024/02/10 04:05:34;;;;;;;1.73;1.30;;;9.10;99.90;;;;;;5013771;28;20484;-49
2024/02/10 04:08:02;;;;;;;2.00;1.30;;;9.10;99.90;;;;;;5017195;28;20436;-49
2024/02/10 04:10:31;;;;;;;2.63;1.30;;;9.10;99.90;;;;;;5018851;28;20460;-50
2024/02/10 04:13:02;;;;;;;1.60;1.10;;;9.10;99.90;;;;;;5021640;28;20472;-48
2024/02/10 04:15:32;;;;;;;2.40;1.23;;;9.10;99.90;;;;;;5021596;28;20461;-52
2024/02/10 04:18:01;;;;;;;1.70;1.30;;;9.10;99.90;;;;;;5016603;28;20539;-49
2024/02/10 04:20:31;;;;;;;2.03;1.40;;;9.10;99.90;;;;;;5024028;28;20539;-50
2024/02/10 04:23:03;;;;;;;2.03;1.40;;;9.10;99.90;;;;;;5015157;28;20469;-47
2024/02/10 04:25:32;;;;;;;2.10;1.50;;;9.10;99.90;;;;;;5015191;28;20490;-49
2024/02/10 04:28:02;;;;;;;1.30;1.00;;;9.10;99.90;;;;;;5017346;28;20876;-48
2024/02/10 04:30:31;;;;;;;1.37;1.07;;;9.10;99.90;;;;;;5018720;28;21099;-48
2024/02/10 04:32:59;;;;;;;2.07;1.40;;;9.10;99.90;;;;;;5015012;28;20460;-48
2024/02/10 04:35:28;;;;;;;2.67;1.30;;;9.10;99.90;;;;;;5013768;28;20528;-50
2024/02/10 04:37:56;;;;;;;1.43;1.00;;;9.10;99.90;;;;;;5017107;28;20926;-47
2024/02/10 04:40:25;;;;;;;2.83;1.40;;;9.10;99.90;;;;;;5013639;28;20580;-49
2024/02/10 04:42:54;;;;;;;2.10;1.30;;;9.10;99.90;;;;;;5022227;28;20552;-49
2024/02/10 04:45:30;;;;;;;1.80;1.20;;;9.10;99.90;;;;;;5022617;28;21065;-49
2024/02/10 04:48:00;;;;;;;1.47;1.17;;;9.10;99.90;;;;;;5021388;28;20586;-49
2024/02/10 04:50:30;;;;;;;1.80;1.27;;;9.10;99.90;;;;;;5019743;28;20456;-47
2024/02/10 04:52:58;;;;;;;1.70;1.17;;;9.10;99.90;;;;;;5014159;28;20452;-47
2024/02/10 04:55:28;;;;;;;1.97;1.40;;;9.10;99.90;;;;;;5023785;28;20421;-49
2024/02/10 04:57:56;;;;;;;1.70;1.20;;;9.10;99.90;;;;;;5014088;28;20495;-50
2024/02/10 05:00:25;;;;;;;2.07;1.20;;;9.10;99.90;;;;;;5018308;28;20437;-51
2024/02/10 05:02:54;;;;;;;2.03;1.20;;;9.10;99.90;;;;;;5019179;28;20483;-48
2024/02/10 05:05:23;;;;;;;2.20;1.50;;;9.10;99.90;;;;;;5021440;28;20504;-48
2024/02/10 05:07:53;;;;;;;4.33;1.10;;;9.10;99.90;;;;;;5019894;28;20429;-48
2024/02/10 05:10:22;;;;;;;3.07;1.10;;;9.10;99.90;;;;;;5019256;28;20507;-47
2024/02/10 05:12:52;;;;;;;1.40;1.00;;;9.10;99.90;;;;;;5018605;28;20456;-50
2024/02/10 05:15:23;;;;;;;2.00;1.47;;;9.10;99.90;;;;;;5016575;28;20747;-50
2024/02/10 05:17:54;;;;;;;2.00;1.80;;;9.10;99.90;;;;;;5015265;28;21037;-50
2024/02/10 05:20:26;;;;;;;1.60;1.30;;;9.10;99.90;;;;;;5017523;28;20528;-49
2024/02/10 05:22:57;;;;;;;2.37;1.40;;;9.10;99.90;;;;;;5013859;28;20471;-47
2024/02/10 05:25:32;;;;;;;2.30;1.10;;;9.10;99.90;;;;;;5020376;28;20472;-49
2024/02/10 05:28:01;;;;;;;1.50;0.90;;;9.10;99.90;;;;;;5016030;28;20447;-47
2024/02/10 05:30:29;;;;;;;1.87;1.43;;;9.10;99.90;;;;;;5012936;28;20429;-50
2024/02/10 05:33:02;;;;;;;1.77;1.00;;;9.10;99.90;;;;;;5019569;28;20486;-48
2024/02/10 05:35:31;;;;;;;2.07;1.00;;;9.10;99.90;;;;;;5020121;28;21035;-50
2024/02/10 05:38:03;;;;;;;2.23;1.00;;;9.10;99.90;;;;;;5016083;28;20495;-47
2024/02/10 05:40:32;;;;;;;1.90;1.40;;;9.10;99.90;;;;;;5013226;28;20531;-47
2024/02/10 05:43:04;;;;;;;1.40;1.10;;;9.10;99.90;;;;;;5013493;28;20482;-47
2024/02/10 05:45:34;;;;;;;1.73;1.13;;;9.10;99.90;;;;;;5016640;28;20950;-47
2024/02/10 05:48:06;;;;;;;2.07;1.43;;;9.10;99.90;;;;;;5014073;28;20447;-49
2024/02/10 05:50:36;;;;;;;1.50;1.10;;;9.10;99.90;;;;;;5011611;28;20962;-49
2024/02/10 05:53:06;;;;;;;2.17;1.03;;;9.10;99.90;;;;;;5020206;28;20548;-48
2024/02/10 05:55:35;;;;;;;2.57;1.20;;;9.10;99.90;;;;;;5015115;28;20464;-49
2024/02/10 05:58:08;;;;;;;4.00;1.73;;;9.10;99.90;;;;;;5019949;28;20433;-48
2024/02/10 06:00:43;;;;;;;1.67;1.20;;;9.10;99.90;;;;;;5008954;28;20535;-47
2024/02/10 06:03:15;;;;;;;1.30;0.90;;;9.10;99.90;;;;;;5016895;28;20475;-48
2024/02/10 06:05:45;;;;;;;1.80;1.10;;;9.10;99.90;;;;;;5020909;28;20559;-49
2024/02/10 06:08:15;;;;;;;2.23;1.43;;;9.10;99.90;;;;;;5010571;28;20540;-48
2024/02/10 06:10:43;;;;;;;2.87;1.70;;;9.10;99.90;;;;;;5017214;28;20497;-50
2024/02/10 06:13:14;;;;;;;1.50;1.00;;;9.10;99.90;;;;;;5015897;28;20444;-49
2024/02/10 06:15:44;;;;;;;2.07;1.30;;;9.10;99.90;;;;;;5016716;28;20466;-50
2024/02/10 06:18:14;;;;;;;2.20;1.43;;;9.10;99.90;;;;;;5011923;28;21042;-52
2024/02/10 06:20:45;;;;;;;1.50;1.10;;;9.10;99.90;;;;;;5011949;28;20495;-49
2024/02/10 06:23:20;;;;;;;1.60;1.13;;;9.10;99.90;;;;;;5017507;28;21033;-47
2024/02/10 06:25:53;;;;;;;1.40;0.93;;;9.10;99.90;;;;;;5011444;28;20456;-48
2024/02/10 06:28:22;;;;;;;2.70;1.20;;;9.10;99.90;;;;;;5020372;28;20428;-48
2024/02/10 06:30:50;;;;;;;2.20;1.23;;;9.10;99.90;;;;;;5012875;28;20548;-47
2024/02/10 06:33:21;;;;;;;2.00;1.60;;;9.10;99.90;;;;;;5012365;28;20468;-48
2024/02/10 06:35:51;;;;;;;1.80;1.23;;;9.10;99.90;;;;;;5016697;28;20479;-48
2024/02/10 06:38:21;;;;;;;1.93;1.27;;;9.10;99.90;;;;;;5009151;28;20931;-46
2024/02/10 06:40:50;;;;;;;2.40;1.70;;;9.10;99.90;;;;;;5010400;28;20464;-47
2024/02/10 06:43:20;;;;;;;2.17;1.33;;;9.10;99.90;;;;;;5014115;28;20496;-47
2024/02/10 06:45:48;;;;;;;1.70;1.13;;;9.10;99.90;;;;;;5009565;28;20463;-49
2024/02/10 06:48:20;;;;;;;2.43;1.53;;;9.10;99.90;;;;;;5010843;28;20431;-49
2024/02/10 06:50:51;;;;;;;2.13;1.30;;;9.10;99.90;;;;;;5016424;28;20560;-46
2024/02/10 06:53:23;;;;;;;2.30;1.27;;;9.10;99.90;;;;;;5017157;28;20542;-46
2024/02/10 06:55:52;;;;;;;1.80;1.40;;;9.00;99.90;;;;;;5008086;28;20548;-47
2024/02/10 06:58:24;;;;;;;1.93;1.47;;;9.10;99.90;;;;;;5014638;28;20450;-46
2024/02/10 07:00:54;;;;;;;2.60;1.60;;;9.10;99.90;;;;;;5010954;28;20476;-46
2024/02/10 07:03:26;;;;;;;1.50;1.20;;;9.10;99.90;;;;;;5010442;28;20476;-48
2024/02/10 07:05:55;;;;;;;3.30;1.50;;;9.10;99.90;;;;;;5013199;28;20468;-46
2024/02/10 07:08:25;;;;;;;2.07;1.53;;;9.00;99.90;;;;;;5009635;28;20429;-48
2024/02/10 07:10:54;;;;;;;2.07;1.30;;;9.00;99.90;;;;;;5012916;28;20514;-46
2024/02/10 07:13:24;;;;;;;1.90;1.10;;;9.00;99.90;;;;;;5018386;28;20484;-46
2024/02/10 07:15:54;;;;;;;1.60;1.30;;;9.00;99.90;;;;;;5008704;28;20873;-47
2024/02/10 07:18:25;;;;;;;1.80;1.30;;;9.00;99.90;;;;;;5016531;28;20452;-46
2024/02/10 07:20:54;;;;;;;2.20;1.20;;;9.00;99.90;;;;;;5011360;28;20489;-46
2024/02/10 07:23:26;;;;;;;1.80;1.30;;;9.00;99.90;;;;;;5010987;28;20449;-46
2024/02/10 07:25:55;;;;;;;2.10;1.40;;;9.00;99.90;;;;;;5012417;28;20481;-48
2024/02/10 07:28:24;;;;;;;1.83;1.20;;;9.00;99.90;;;;;;5021468;28;20987;-47
2024/02/10 07:30:52;;;;;;;2.47;1.80;;;9.00;99.90;;;;;;5016530;28;20548;-47
2024/02/10 07:33:22;;;;;;;1.57;1.27;;;9.00;99.90;;;;;;5006492;28;20540;-49
2024/02/10 07:35:52;;;;;;;2.10;1.30;;;9.00;99.90;;;;;;5014666;28;20842;-46
2024/02/10 07:38:21;;;;;;;2.07;1.37;;;9.00;99.90;;;;;;5010599;28;20496;-47
2024/02/10 07:40:49;;;;;;;1.83;1.20;;;9.00;99.90;;;;;;5009425;28;20471;-47
2024/02/10 07:43:21;;;;;;;2.60;1.60;;;9.00;99.90;;;;;;5012739;28;20779;-47
2024/02/10 07:45:52;;;;;;;4.10;1.90;;;9.00;99.90;;;;;;5011681;28;20918;-47
2024/02/10 07:48:21;;;;;;;2.60;1.37;;;9.00;99.90;;;;;;5030750;28;20542;-45
2024/02/10 07:50:54;;;;;;;1.97;1.33;;;9.00;99.90;;;;;;5010225;28;20844;-47
2024/02/10 07:53:23;;;;;;;1.93;1.20;;;9.00;99.90;;;;;;5014774;28;20547;-46
2024/02/10 07:55:52;;;;;;;1.60;1.50;;;9.00;99.90;;;;;;5009037;28;20453;-49
2024/02/10 07:58:21;;;;;;;1.40;1.13;;;9.00;99.90;;;;;;5011500;28;20919;-48
2024/02/10 08:00:50;;;;;;;1.70;1.10;;;9.00;99.90;;;;;;5011201;28;20512;-46
2024/02/10 08:03:20;;;;;;;1.60;1.03;;;9.00;99.90;;;;;;5013095;28;20472;-48
2024/02/10 08:05:51;;;;;;;2.50;1.27;;;9.00;99.90;;;;;;5015847;28;20878;-48
2024/02/10 08:08:23;;;;;;;2.37;1.60;;;9.00;99.90;;;;;;5012932;28;20429;-47
2024/02/10 08:10:53;;;;;;;2.63;1.23;;;9.00;99.90;;;;;;5012491;28;20555;-47
2024/02/10 08:13:24;;;;;;;2.17;1.33;;;9.00;99.90;;;;;;5019286;28;20456;-48
2024/02/10 08:15:55;;;;;;;1.77;1.27;;;9.00;99.90;;;;;;5012654;28;20511;-51
2024/02/10 08:18:26;;;;;;;1.50;0.80;;;9.00;99.90;;;;;;5006753;28;20447;-46
2024/02/10 08:20:57;;;;;;;1.87;1.37;;;9.00;99.90;;;;;;5020108;28;20471;-47
2024/02/10 08:23:28;;;;;;;1.60;1.20;;;9.00;99.90;;;;;;5014562;28;20461;-47
2024/02/10 08:25:59;;;;;;;2.10;1.40;;;9.00;99.90;;;;;;5022129;28;20464;-48
2024/02/10 08:28:29;;;;;;;2.07;1.47;;;9.00;99.90;;;;;;5017215;28;20451;-48
2024/02/10 08:31:02;;;;;;;1.77;1.20;;;9.00;99.90;;;;;;5024360;28;20549;-47
2024/02/10 08:33:33;;;;;;;2.10;1.20;;;9.00;99.90;;;;;;5014287;28;20457;-46
2024/02/10 08:36:02;;;;;;;2.90;1.10;;;9.00;99.90;;;;;;5013988;28;20472;-48
2024/02/10 08:38:32;;;;;;;2.40;1.40;;;9.00;99.90;;;;;;5012629;28;20503;-46
2024/02/10 08:41:02;;;;;;;2.50;1.13;;;9.00;99.90;;;;;;5011546;28;20542;-47
2024/02/10 08:43:31;;;;;;;1.93;1.50;;;9.00;99.90;;;;;;5015235;28;20488;-48
2024/02/10 08:46:00;;;;;;;1.77;1.13;;;9.00;99.90;;;;;;5017318;28;20472;-50
2024/02/10 08:48:29;;;;;;;1.50;1.10;;;9.00;99.90;;;;;;5009875;28;20963;-46
2024/02/10 08:50:57;;;;;;;1.37;1.13;;;9.00;99.90;;;;;;5014652;28;20471;-47
2024/02/10 08:53:32;;;;;;;2.07;1.40;;;9.10;99.90;;;;;;5010254;28;20453;-47
2024/02/10 08:56:03;;;;;;;2.30;1.20;;;9.10;99.90;;;;;;5013298;28;20930;-46
2024/02/10 08:58:32;;;;;;;2.50;1.37;;;9.10;99.90;;;;;;5011356;28;20924;-46
2024/02/10 09:01:03;;;;;;;1.90;1.43;;;9.10;99.90;;;;;;5012051;28;20517;-45
2024/02/10 09:03:35;;;;;;;2.40;1.60;;;9.10;99.90;;;;;;5009203;28;20473;-46
2024/02/10 09:06:04;;;;;;;1.77;1.30;;;9.10;99.90;;;;;;5018519;28;20471;-46
2024/02/10 09:08:33;;;;;;;1.80;1.23;;;9.10;99.90;;;;;;4997136;28;20428;-45
2024/02/10 09:11:05;;;;;;;1.90;1.23;;;9.10;99.90;;;;;;5021825;28;20507;-46
2024/02/10 09:13:33;;;;;;;2.00;1.60;;;9.10;99.90;;;;;;5020012;28;20455;-46
2024/02/10 09:16:03;;;;;;;5.40;1.60;;;9.10;99.90;;;;;;5010204;28;21027;-46
2024/02/10 09:18:32;;;;;;;2.27;1.40;;;9.10;99.90;;;;;;5015289;28;20445;-46
2024/02/10 09:21:03;;;;;;;1.70;1.23;;;9.10;99.90;;;;;;5009725;28;20539;-46
2024/02/10 09:23:31;;;;;;;2.20;1.70;;;9.10;99.90;;;;;;5018416;28;20467;-47
2024/02/10 09:25:59;;;;;;;1.97;1.53;;;9.20;99.90;;;;;;5008102;28;20684;-46
2024/02/10 09:28:31;;;;;;;1.73;1.40;;;9.20;99.90;;;;;;5013736;28;20428;-48
2024/02/10 09:31:01;;;;;;;1.53;1.30;;;9.10;99.90;;;;;;5010466;28;20543;-46
2024/02/10 09:33:29;;;;;;;2.10;1.50;;;9.20;99.90;;;;;;5010122;28;20468;-45
2024/02/10 09:35:58;;;;;;;2.00;1.30;;;9.10;99.90;;;;;;5014545;28;20959;-49
2024/02/10 09:38:31;;;;;;;2.03;1.23;;;9.20;99.90;;;;;;5014171;28;20443;-50
2024/02/10 09:41:00;;;;;;;2.73;1.37;;;9.10;99.90;;;;;;5011613;28;20457;-46
2024/02/10 09:43:33;;;;;;;2.90;1.83;;;9.10;99.90;;;;;;5013907;28;20456;-46
2024/02/10 09:46:06;;;;;;;2.13;1.40;;;9.10;99.90;;;;;;5013668;28;20514;-47
2024/02/10 09:48:38;;;;;;;1.93;1.20;;;9.10;99.90;;;;;;5009155;28;20449;-48
2024/02/10 09:51:08;;;;;;;1.90;1.70;;;9.10;99.90;;;;;;5014749;28;20836;-47
2024/02/10 09:53:40;;;;;;;1.60;1.20;;;9.10;99.90;;;;;;5016715;28;20491;-48
2024/02/10 09:56:12;;;;;;;1.77;1.27;;;9.10;99.90;;;;;;5005119;28;20452;-48
2024/02/10 09:58:46;;;;;;;2.90;1.33;;;9.10;99.90;;;;;;5022072;28;20458;-48
2024/02/10 10:01:16;;;;;;;3.10;1.40;;;9.20;99.90;;;;;;5015248;28;21157;-50
2024/02/10 10:03:44;;;;;;;2.30;2.10;;;9.10;99.90;;;;;;5016917;28;20471;-47
2024/02/10 10:06:14;;;;;;;3.10;1.70;;;9.30;99.90;;;;;;5019394;28;20464;-47
2024/02/10 10:08:43;;;;;;;2.50;2.30;;;9.30;99.90;;;;;;5020726;28;20428;-47
2024/02/10 10:11:12;;;;;;;2.60;1.80;;;9.40;99.90;;;;;;5015636;28;20460;-48
2024/02/10 10:13:41;;;;;;;3.07;2.57;;;9.40;99.90;;;;;;5020924;28;20943;-46
2024/02/10 10:16:11;;;;;;;5.13;2.30;;;9.40;99.90;;;;;;5017631;28;20490;-47
2024/02/10 10:18:42;;;;;;;2.47;1.53;;;9.40;99.90;;;;;;5014787;28;20444;-47
2024/02/10 10:21:12;;;;;;;3.70;2.20;;;9.40;99.90;;;;;;5019131;28;20555;-46
2024/02/10 10:23:42;;;;;;;1.87;1.50;;;9.40;99.90;;;;;;5020884;28;20443;-48
2024/02/10 10:26:12;;;;;;;2.10;1.53;;;9.40;99.90;;;;;;5016608;28;20466;-46
2024/02/10 10:28:41;;;;;;;2.20;1.80;;;9.40;99.90;;;;;;5018064;28;20492;-46
2024/02/10 10:31:12;;;;;;;2.60;1.80;;;9.40;99.90;;;;;;5018612;28;20529;-48
2024/02/10 10:33:47;;;;;;;2.73;2.30;;;9.40;99.90;;;;;;5014453;28;20475;-48
2024/02/10 10:36:17;;;;;;;2.90;1.90;;;9.40;99.90;;;;;;5019346;28;20465;-48
2024/02/10 10:38:46;;;;;;;2.10;1.60;;;9.40;99.90;;;;;;5022615;28;20849;-46
2024/02/10 10:41:18;;;;;;;2.00;1.53;;;9.40;99.90;;;;;;5017408;28;20459;-46
2024/02/10 10:43:49;;;;;;;3.47;1.80;;;9.30;99.90;;;;;;5020742;28;20547;-46
2024/02/10 10:46:19;;;;;;;2.20;1.83;;;9.40;99.90;;;;;;5017605;28;20491;-46
2024/02/10 10:48:48;;;;;;;2.23;1.53;;;9.40;99.90;;;;;;5018433;28;20733;-47
2024/02/10 10:51:22;;;;;;;3.83;1.63;;;9.40;99.90;;;;;;5019183;28;20468;-46
2024/02/10 10:53:51;;;;;;;2.23;1.63;;;9.40;99.90;;;;;;5021823;28;20486;-47
2024/02/10 10:56:24;;;;;;;2.50;1.60;;;9.40;99.90;;;;;;5021185;28;20472;-47
2024/02/10 10:58:57;;;;;;;1.70;1.30;;;9.40;99.90;;;;;;5014711;28;20873;-47
2024/02/10 11:01:29;;;;;;;1.97;1.30;;;9.40;99.90;;;;;;5011037;28;20783;-46
2024/02/10 11:04:01;;;;;;;1.77;1.10;;;9.40;99.90;;;;;;5019930;28;20448;-46
2024/02/10 11:06:33;;;;;;;1.50;1.30;;;9.40;99.90;;;;;;5016234;28;20457;-46
2024/02/10 11:09:04;;;;;;;2.33;1.50;;;9.40;99.90;;;;;;5020990;28;20536;-46
2024/02/10 11:11:36;;;;;;;2.00;1.23;;;9.40;99.90;;;;;;5015593;28;20553;-46
2024/02/10 11:14:09;;;;;;;2.00;1.37;;;9.40;99.90;;;;;;5021190;28;20464;-45
2024/02/10 11:16:43;;;;;;;2.57;2.00;;;9.40;99.90;;;;;;5016466;28;20519;-46
2024/02/10 11:19:13;;;;;;;2.17;1.07;;;9.40;99.90;;;;;;5015501;28;20405;-46
2024/02/10 11:21:46;;;;;;;1.70;1.23;;;9.40;99.90;;;;;;5016336;28;20464;-46
2024/02/10 11:24:17;;;;;;;2.20;1.30;;;9.40;99.90;;;;;;5021369;28;20456;-45
2024/02/10 11:26:47;;;;;;;2.63;1.80;;;9.50;99.90;;;;;;5015567;28;20546;-47
2024/02/10 11:29:19;;;;;;;2.30;1.63;;;9.60;99.90;;;;;;5015504;28;20464;-49
2024/02/10 11:31:49;;;;;;;2.23;1.30;;;9.70;99.90;;;;;;5013051;28;20555;-46
2024/02/10 11:34:23;;;;;;;1.90;1.60;;;9.70;99.90;;;;;;5016695;28;20528;-45
2024/02/10 11:36:53;;;;;;;3.10;1.30;;;9.70;99.90;;;;;;5017565;28;20444;-47
2024/02/10 11:39:23;;;;;;;2.97;1.37;;;9.70;99.90;;;;;;5019938;28;20987;-46
2024/02/10 11:41:56;;;;;;;2.20;1.63;;;9.70;99.90;;;;;;5018796;28;20456;-47
2024/02/10 11:44:26;;;;;;;1.80;1.33;;;9.60;99.90;;;;;;5022741;28;20449;-46
2024/02/10 11:46:59;;;;;;;2.07;1.20;;;9.60;99.90;;;;;;5015616;28;20477;-46
2024/02/10 11:49:28;;;;;;;3.00;1.50;;;9.60;99.90;;;;;;5018897;28;20503;-47
2024/02/10 11:52:01;;;;;;;2.30;1.30;;;9.60;99.90;;;;;;5017536;28;20471;-48
2024/02/10 11:54:30;;;;;;;2.10;1.20;;;9.60;99.90;;;;;;5021740;28;20482;-46
2024/02/10 11:57:02;;;;;;;2.10;1.50;;;9.60;99.90;;;;;;5014072;28;20504;-46
2024/02/10 11:59:34;;;;;;;2.50;1.20;;;9.60;99.90;;;;;;5021704;28;20421;-46
2024/02/10 12:04:51;;;;;;;1.80;1.00;;;9.60;99.90;;;;;;4942437;28;20471;-48
2024/02/10 12:07:26;;;;;;;3.80;1.50;;;9.60;99.90;;;;;;4943739;28;20574;-46
2024/02/10 12:10:06;;;;;;;2.23;1.00;;;9.60;99.90;;;;;;4940766;29;20431;-47
2024/02/10 12:12:35;;;;;;;2.77;1.67;;;9.60;99.90;;;;;;4921764;29;20859;-46
2024/02/10 12:15:04;;;;;;;1.50;1.10;;;9.60;99.90;;;;;;4940184;29;20532;-46
2024/02/10 12:17:37;;;;;;;5.20;1.57;;;9.60;99.90;;;;;;4940641;28;20494;-47
2024/02/10 12:20:12;;;;;;;1.90;1.10;;;9.60;99.90;;;;;;4924384;29;20446;-48
2024/02/10 12:22:43;;;;;;;1.73;1.17;;;9.60;99.90;;;;;;4920807;29;20536;-47
2024/02/10 12:25:12;;;;;;;1.93;1.40;;;9.60;99.90;;;;;;4890556;29;20496;-48
2024/02/10 12:27:42;;;;;;;1.97;1.20;;;9.60;99.90;;;;;;4907036;29;20476;-49
2024/02/10 12:30:14;;;;;;;3.80;1.20;;;9.60;99.90;;;;;;4920695;29;20974;-48
2024/02/10 12:32:44;;;;;;;1.80;1.10;;;9.60;99.90;;;;;;4921230;28;20483;-50
2024/02/10 12:35:16;;;;;;;2.13;1.30;;;9.60;99.90;;;;;;4919968;29;20432;-47
2024/02/10 12:37:47;;;;;;;2.40;1.80;;;9.60;99.90;;;;;;4916368;29;20568;-48
2024/02/10 12:40:20;;;;;;;1.60;1.20;;;9.60;99.90;;;;;;4922494;29;20529;-48
2024/02/10 12:42:50;;;;;;;2.47;1.40;;;9.60;99.90;;;;;;4921008;29;20570;-49
2024/02/10 12:45:22;;;;;;;1.77;1.10;;;9.60;99.90;;;;;;4921619;29;20457;-48
2024/02/10 12:47:53;;;;;;;1.37;1.10;;;9.60;99.90;;;;;;4918705;29;20558;-47
2024/02/10 12:50:23;;;;;;;1.53;0.90;;;9.60;99.90;;;;;;4906130;29;20444;-48
2024/02/10 12:52:54;;;;;;;2.27;0.97;;;9.60;99.90;;;;;;4895309;29;20461;-49
2024/02/10 12:55:24;;;;;;;1.63;0.87;;;9.60;99.90;;;;;;4923584;28;21057;-48
2024/02/10 12:57:53;;;;;;;2.50;1.30;;;9.60;99.90;;;;;;4961276;28;20950;-47
2024/02/10 13:00:22;;;;;;;2.30;1.30;;;9.60;99.90;;;;;;4963486;28;20449;-51
2024/02/10 13:02:58;;;;;;;2.43;1.50;;;9.60;99.90;;;;;;4956949;28;20484;-48
2024/02/10 13:05:28;;;;;;;1.67;1.00;;;9.60;99.90;;;;;;4964273;28;20427;-47
2024/02/10 13:07:58;;;;;;;1.70;1.00;;;9.60;99.90;;;;;;4965897;28;20436;-48
2024/02/10 13:10:29;;;;;;;2.00;1.00;;;9.60;99.90;;;;;;4960300;28;20444;-47
2024/02/10 13:12:59;;;;;;;3.40;1.43;;;9.60;99.90;;;;;;4958455;28;20444;-45
2024/02/10 13:15:28;;;;;;;1.93;1.20;;;9.60;99.90;;;;;;4955841;28;20485;-46